Time;durP1;ratioP1;P1;durP2;ratioP2;P2;SDS_P1;SDS_P2;PMS_P1;PMS_P2;Temp;Humidity;BMP_temperature;BMP_pressure;BME280_temperature;BME280_humidity;BME280_pressure;Samples;Min_cycle;Max_cycle;Signal;HPM_P1;HPM_P2
2021/07/29 00:00:44;;;;;;;42.50;7.50;;;;;;;20.39;90.32;100390.69;1748152;81;20987;-38
2021/07/29 00:03:10;;;;;;;45.83;8.25;;;;;;;20.45;89.87;100388.61;1752243;81;21107;-40
2021/07/29 00:05:37;;;;;;;60.88;9.15;;;;;;;20.51;89.50;100392.17;1739637;81;21620;-39
2021/07/29 00:08:04;;;;;;;97.17;10.72;;;;;;;20.55;88.86;100385.78;1716079;81;21501;-39
2021/07/29 00:10:32;;;;;;;57.38;9.53;;;;;;;20.59;88.40;100385.13;1704387;83;20919;-39
2021/07/29 00:13:00;;;;;;;68.47;9.33;;;;;;;20.59;88.49;100381.19;1746774;81;21022;-39
2021/07/29 00:15:28;;;;;;;60.08;10.03;;;;;;;20.57;88.79;100378.64;1748991;81;21102;-39
2021/07/29 00:20:26;;;;;;;37.08;7.28;;;;;;;20.47;88.97;100381.48;1750708;81;20955;-39
2021/07/29 00:22:58;;;;;;;23.45;6.55;;;;;;;20.41;89.24;100376.60;1750368;80;20947;-39
2021/07/29 00:25:25;;;;;;;19.37;7.00;;;;;;;20.33;89.53;100371.32;1713580;83;21019;-39
2021/07/29 00:27:52;;;;;;;34.03;7.65;;;;;;;20.29;89.91;100374.25;1731953;81;21124;-39
2021/07/29 00:30:21;;;;;;;34.60;6.58;;;;;;;20.22;90.25;100369.83;1748273;81;20983;-38
2021/07/29 00:32:47;;;;;;;30.15;7.75;;;;;;;20.16;90.55;100365.78;1747016;81;21057;-39
2021/07/29 00:35:14;;;;;;;36.85;7.78;;;;;;;20.13;90.87;100371.70;1747205;81;21018;-39
2021/07/29 00:37:42;;;;;;;44.18;7.85;;;;;;;20.08;91.07;100371.52;1720584;81;21545;-39
2021/07/29 00:40:10;;;;;;;40.92;6.85;;;;;;;20.05;91.07;100370.84;1749333;81;21146;-39
2021/07/29 00:42:37;;;;;;;49.93;9.98;;;;;;;20.03;90.97;100368.78;1748274;81;21035;-39
2021/07/29 00:45:05;;;;;;;67.95;8.75;;;;;;;20.10;90.89;100373.58;1749377;81;20865;-39
2021/07/29 00:47:31;;;;;;;96.80;11.28;;;;;;;20.19;90.51;100372.64;1741340;81;20965;-39
2021/07/29 00:49:57;;;;;;;76.70;11.12;;;;;;;20.27;90.18;100368.25;1745366;81;21067;-39
2021/07/29 00:52:24;;;;;;;74.60;10.13;;;;;;;20.33;89.35;100364.75;1729773;81;21814;-38
2021/07/29 00:54:52;;;;;;;69.03;10.88;;;;;;;20.42;88.87;100358.09;1714769;83;22469;-38
2021/07/29 00:57:19;;;;;;;104.72;10.58;;;;;;;20.49;88.39;100358.11;1685212;83;20963;-39
2021/07/29 00:59:45;;;;;;;96.72;11.50;;;;;;;20.55;88.07;100360.80;1683316;83;21130;-39
2021/07/29 01:02:11;;;;;;;67.92;10.23;;;;;;;20.57;87.53;100362.04;1702922;83;21032;-39
2021/07/29 01:04:38;;;;;;;80.83;11.03;;;;;;;20.61;87.21;100357.82;1712134;83;21133;-39
2021/07/29 01:07:04;;;;;;;83.95;11.43;;;;;;;20.66;86.83;100349.17;1716048;83;20976;-39
2021/07/29 01:09:31;;;;;;;70.75;9.73;;;;;;;20.70;86.54;100354.23;1633210;85;20929;-39
2021/07/29 01:11:57;;;;;;;83.90;10.18;;;;;;;20.71;86.29;100353.29;1656849;85;20996;-39
2021/07/29 01:14:24;;;;;;;78.20;8.98;;;;;;;20.67;85.79;100349.54;1647057;86;21028;-39
2021/07/29 01:16:51;;;;;;;77.67;9.20;;;;;;;20.68;85.32;100364.38;1674466;85;21797;-38
2021/07/29 01:19:20;;;;;;;55.05;8.95;;;;;;;20.70;85.10;100350.28;1692394;84;21046;-39
2021/07/29 01:21:46;;;;;;;53.33;8.18;;;;;;;20.71;85.13;100353.29;1684876;84;21690;-39
2021/07/29 01:24:13;;;;;;;72.70;8.70;;;;;;;20.69;84.90;100358.63;1685396;83;21048;-39
2021/07/29 01:26:40;;;;;;;46.00;7.37;;;;;;;20.66;84.63;100358.38;1713173;82;20958;-39
2021/07/29 01:29:06;;;;;;;43.38;7.80;;;;;;;20.66;84.54;100365.40;1708313;83;21190;-39
2021/07/29 01:31:33;;;;;;;44.00;8.10;;;;;;;20.66;84.36;100361.00;1700069;83;21049;-39
2021/07/29 01:33:59;;;;;;;65.67;9.10;;;;;;;20.66;84.43;100368.03;1711714;83;21048;-40
2021/07/29 01:36:27;;;;;;;58.23;9.65;;;;;;;20.66;84.46;100369.34;1713701;83;21011;-39
2021/07/29 01:38:54;;;;;;;61.20;9.60;;;;;;;20.63;84.51;100366.45;1710886;83;20960;-39
2021/07/29 01:41:20;;;;;;;52.98;8.70;;;;;;;20.60;84.46;100357.45;1702209;83;21108;-39
2021/07/29 01:43:47;;;;;;;39.20;7.70;;;;;;;20.62;84.39;100364.77;1715760;83;21023;-39
2021/07/29 01:46:13;;;;;;;40.38;8.48;;;;;;;20.62;84.29;100363.45;1709807;83;21467;-39
2021/07/29 01:48:39;;;;;;;46.10;8.33;;;;;;;20.62;84.33;100362.14;1691284;83;21066;-39
2021/07/29 01:51:06;;;;;;;52.38;8.55;;;;;;;20.61;84.44;100356.50;1644842;84;21063;-39
2021/07/29 01:53:33;;;;;;;45.85;8.33;;;;;;;20.57;84.68;100360.23;1733293;82;21003;-39
2021/07/29 01:55:59;;;;;;;32.95;7.90;;;;;;;20.55;84.95;100358.66;1747763;82;21670;-39
2021/07/29 01:58:26;;;;;;;29.82;7.30;;;;;;;20.50;85.17;100351.91;1742473;82;21016;-39
2021/07/29 02:00:53;;;;;;;23.62;6.50;;;;;;;20.47;85.17;100361.76;1741792;82;20972;-39
2021/07/29 02:03:19;;;;;;;34.45;6.67;;;;;;;20.44;85.52;100357.52;1731839;81;21118;-40
2021/07/29 02:05:46;;;;;;;25.75;7.15;;;;;;;20.44;85.28;100359.33;1741304;82;21801;-39
2021/07/29 02:08:12;;;;;;;40.83;7.45;;;;;;;20.44;85.13;100360.16;1726036;82;21538;-39
2021/07/29 02:10:39;;;;;;;30.82;7.33;;;;;;;20.44;85.18;100367.20;1735255;82;21458;-39
2021/07/29 02:13:05;;;;;;;42.55;7.70;;;;;;;20.42;85.51;100359.89;1743773;82;21027;-39
2021/07/29 02:15:32;;;;;;;51.23;9.80;;;;;;;20.39;85.70;100359.14;1733360;82;21023;-38
2021/07/29 02:18:01;;;;;;;49.08;8.20;;;;;;;20.38;86.00;100358.77;1734801;82;21011;-39
2021/07/29 02:20:27;;;;;;;50.55;9.15;;;;;;;20.33;86.26;100359.49;1742507;82;20991;-38
2021/07/29 02:22:54;;;;;;;40.58;7.42;;;;;;;20.29;86.58;100363.25;1705763;83;21404;-40
2021/07/29 02:25:21;;;;;;;48.78;7.58;;;;;;;20.23;87.10;100363.63;1739415;82;21411;-39
2021/07/29 02:27:48;;;;;;;33.05;7.40;;;;;;;20.15;87.64;100377.23;1739002;82;21561;-38
2021/07/29 02:30:14;;;;;;;48.17;7.20;;;;;;;20.06;88.15;100369.42;1739916;82;21084;-39
2021/07/29 02:32:41;;;;;;;35.75;7.35;;;;;;;19.99;88.60;100371.22;1739342;82;21014;-39
2021/07/29 02:35:09;;;;;;;53.60;8.08;;;;;;;19.94;89.05;100378.05;1732460;82;20960;-39
2021/07/29 02:37:36;;;;;;;48.92;7.00;;;;;;;19.91;89.45;100378.23;1738159;81;21009;-39
2021/07/29 02:40:03;;;;;;;46.08;8.38;;;;;;;19.89;89.67;100373.03;1736181;82;20946;-39
2021/07/29 02:42:29;;;;;;;53.45;9.95;;;;;;;19.88;89.89;100370.51;1714536;82;21020;-39
2021/07/29 02:44:55;;;;;;;62.17;9.28;;;;;;;19.88;89.97;100370.51;1740146;82;20990;-39
2021/07/29 02:47:22;;;;;;;36.60;8.05;;;;;;;19.88;90.20;100379.22;1744237;82;20979;-39
2021/07/29 02:49:48;;;;;;;35.30;7.45;;;;;;;19.88;90.40;100379.70;1737620;82;21046;-39
2021/07/29 02:52:14;;;;;;;44.08;7.00;;;;;;;19.89;90.52;100382.70;1741211;81;21030;-39
2021/07/29 02:54:41;;;;;;;31.90;8.20;;;;;;;19.91;90.54;100382.17;1718443;82;21110;-39
2021/07/29 02:57:07;;;;;;;28.42;7.17;;;;;;;19.93;90.31;100378.50;1737967;81;20994;-39
2021/07/29 02:59:34;;;;;;;16.35;6.30;;;;;;;20.01;89.98;100367.55;1734120;81;21023;-39
2021/07/29 03:02:01;;;;;;;24.52;6.00;;;;;;;20.12;89.69;100368.70;1737941;81;21470;-39
2021/07/29 03:04:27;;;;;;;19.80;5.75;;;;;;;20.22;89.07;100371.14;1740719;81;21500;-39
2021/07/29 03:06:58;;;;;;;21.68;6.95;;;;;;;20.32;88.42;100373.58;1741966;82;21223;-39
2021/07/29 03:09:22;;;;;;;19.52;6.72;;;;;;;20.44;88.10;100375.92;1735000;81;20996;-39
2021/07/29 03:11:50;;;;;;;22.52;5.97;;;;;;;20.53;87.75;100378.46;1690281;84;20994;-39
2021/07/29 03:14:19;;;;;;;26.80;7.10;;;;;;;20.59;87.19;100376.80;1742816;82;21027;-39
2021/07/29 03:16:46;;;;;;;23.80;6.28;;;;;;;20.67;86.61;100378.47;1742501;81;20956;-39
2021/07/29 03:19:13;;;;;;;23.98;7.08;;;;;;;20.75;85.75;100375.81;1707546;82;21491;-39
2021/07/29 03:21:40;;;;;;;20.35;7.22;;;;;;;20.84;85.31;100383.64;1741429;81;20956;-41
2021/07/29 03:24:07;;;;;;;25.92;7.72;;;;;;;20.90;85.05;100374.90;1741143;82;21501;-40
2021/07/29 03:26:34;;;;;;;26.95;7.28;;;;;;;20.97;85.00;100381.94;1741881;81;21037;-40
2021/07/29 03:29:00;;;;;;;29.23;6.78;;;;;;;21.01;84.52;100382.11;1724621;82;21602;-40
2021/07/29 03:31:27;;;;;;;27.13;7.35;;;;;;;21.05;84.32;100378.80;1708069;83;21079;-40
2021/07/29 03:33:53;;;;;;;29.70;6.83;;;;;;;21.10;83.92;100379.37;1655380;85;20964;-39
2021/07/29 03:36:20;;;;;;;23.32;6.45;;;;;;;21.19;83.57;100377.91;1739007;81;20976;-39
2021/07/29 03:38:47;;;;;;;34.33;6.97;;;;;;;21.26;83.24;100380.53;1740403;81;21016;-39
2021/07/29 03:41:13;;;;;;;35.50;7.28;;;;;;;21.32;83.07;100380.59;1726693;81;21006;-39
2021/07/29 03:43:40;;;;;;;22.27;6.87;;;;;;;21.38;82.70;100377.58;1737894;81;21187;-39
2021/07/29 03:46:07;;;;;;;19.15;6.70;;;;;;;21.46;82.41;100381.86;1741809;81;21623;-40
2021/07/29 03:48:33;;;;;;;22.77;6.03;;;;;;;21.56;82.15;100379.92;1736043;82;21072;-39
2021/07/29 03:51:00;;;;;;;16.93;5.40;;;;;;;21.65;81.79;100382.83;1733279;82;22188;-39
2021/07/29 03:53:26;;;;;;;20.37;6.17;;;;;;;21.74;81.34;100372.65;1738700;81;21592;-40
2021/07/29 03:55:54;;;;;;;20.72;6.10;;;;;;;21.87;81.08;100377.94;1728203;82;21115;-40
2021/07/29 03:58:21;;;;;;;23.20;5.78;;;;;;;22.01;80.86;100373.05;1738351;81;21474;-40
2021/07/29 04:00:47;;;;;;;33.20;7.15;;;;;;;22.22;80.38;100375.50;1733241;81;21565;-40
2021/07/29 04:03:13;;;;;;;52.80;9.05;;;;;;;22.47;79.68;100373.00;1740010;81;21547;-40
2021/07/29 04:05:40;;;;;;;55.98;7.62;;;;;;;22.73;78.84;100371.64;1742085;81;20990;-37
2021/07/29 04:08:06;;;;;;;50.23;8.25;;;;;;;22.95;77.22;100370.92;1742798;82;21745;-38
2021/07/29 04:10:33;;;;;;;47.73;9.08;;;;;;;23.17;76.55;100368.91;1739339;81;21015;-38
2021/07/29 04:12:59;;;;;;;69.70;10.75;;;;;;;23.39;75.28;100368.19;1742871;82;20983;-38
2021/07/29 04:15:26;;;;;;;63.80;9.55;;;;;;;23.60;74.54;100366.23;1738069;81;20951;-38
2021/07/29 04:17:54;;;;;;;57.80;9.93;;;;;;;23.84;73.86;100361.38;1714438;83;22458;-38
2021/07/29 04:20:20;;;;;;;79.75;11.10;;;;;;;24.14;72.98;100361.82;1741579;81;21896;-38
2021/07/29 04:22:47;;;;;;;74.90;9.60;;;;;;;24.41;72.01;100363.27;1737722;81;20955;-38
2021/07/29 04:25:14;;;;;;;40.05;7.72;;;;;;;24.65;71.02;100369.27;1739304;82;20972;-37
2021/07/29 04:27:40;;;;;;;38.25;7.25;;;;;;;24.85;69.39;100358.90;1740341;81;21024;-37
2021/07/29 04:30:08;;;;;;;34.73;7.12;;;;;;;25.04;68.40;100356.09;1741872;81;20919;-38
2021/07/29 04:32:36;;;;;;;37.90;8.35;;;;;;;25.22;67.85;100353.73;1731204;81;21177;-38
2021/07/29 04:35:05;;;;;;;35.23;7.75;;;;;;;25.38;67.62;100357.28;1738216;81;20961;-37
2021/07/29 04:37:33;;;;;;;19.77;6.65;;;;;;;25.54;67.31;100360.38;1737926;81;21019;-38
2021/07/29 04:39:59;;;;;;;24.70;8.08;;;;;;;25.74;67.03;100355.69;1733312;81;20945;-40
2021/07/29 04:42:26;;;;;;;24.02;8.45;;;;;;;26.01;67.20;100363.59;1713938;82;21014;-38
2021/07/29 04:44:53;;;;;;;21.05;7.50;;;;;;;26.32;66.26;100357.02;1681086;84;21960;-38
2021/07/29 04:47:21;;;;;;;16.95;6.65;;;;;;;26.59;65.56;100352.42;1740921;81;20905;-38
2021/07/29 04:49:47;;;;;;;23.12;6.12;;;;;;;26.90;65.42;100348.89;1731298;82;20955;-38
2021/07/29 04:52:13;;;;;;;19.62;5.70;;;;;;;27.21;64.00;100350.95;1723979;81;21003;-38
2021/07/29 04:54:39;;;;;;;19.55;5.95;;;;;;;27.44;62.97;100349.34;1740749;81;20983;-38
2021/07/29 04:57:06;;;;;;;13.78;5.58;;;;;;;27.58;61.74;100350.75;1737163;82;21105;-38
2021/07/29 04:59:32;;;;;;;26.48;5.10;;;;;;;27.68;61.35;100345.42;1722238;82;21023;-39
2021/07/29 05:01:59;;;;;;;27.77;6.25;;;;;;;27.78;61.14;100343.57;1728319;82;20976;-39
2021/07/29 05:04:25;;;;;;;50.80;8.00;;;;;;;27.89;60.97;100341.23;1741943;81;20980;-39
2021/07/29 05:06:53;;;;;;;27.45;7.20;;;;;;;28.04;61.17;100339.42;1742043;81;21040;-39
2021/07/29 05:09:20;;;;;;;26.70;6.47;;;;;;;28.14;60.36;100347.38;1739124;81;21090;-39
2021/07/29 05:11:46;;;;;;;25.95;6.40;;;;;;;28.19;59.60;100342.00;1698805;83;20973;-39
2021/07/29 05:14:13;;;;;;;21.37;5.37;;;;;;;28.21;59.54;100342.69;1738011;81;21087;-39
2021/07/29 05:16:39;;;;;;;14.95;5.60;;;;;;;28.33;58.91;100335.35;1731904;81;20984;-39
2021/07/29 05:19:05;;;;;;;11.83;5.65;;;;;;;28.49;58.69;100339.21;1743164;82;21024;-39
2021/07/29 05:21:32;;;;;;;13.45;5.80;;;;;;;28.55;58.47;100341.27;1730187;81;21185;-39
2021/07/29 05:23:59;;;;;;;23.92;6.03;;;;;;;28.68;58.71;100335.59;1742566;81;21033;-40
2021/07/29 05:26:25;;;;;;;17.87;5.42;;;;;;;28.84;58.11;100336.28;1717072;81;22646;-39
2021/07/29 05:28:52;;;;;;;17.23;6.05;;;;;;;28.83;56.16;100347.92;1719801;82;21486;-39
2021/07/29 05:31:19;;;;;;;17.75;5.90;;;;;;;28.71;56.56;100340.61;1742760;81;21069;-40
2021/07/29 05:33:46;;;;;;;18.95;7.10;;;;;;;28.76;56.65;100339.66;1742976;82;21095;-39
2021/07/29 05:36:12;;;;;;;20.48;5.87;;;;;;;28.85;55.67;100337.95;1742880;82;21045;-39
2021/07/29 05:38:39;;;;;;;14.40;5.20;;;;;;;28.84;56.34;100339.45;1739345;80;21567;-39
2021/07/29 05:41:07;;;;;;;16.67;5.45;;;;;;;28.98;56.50;100338.91;1688692;84;21462;-39
2021/07/29 05:43:39;;;;;;;17.35;5.60;;;;;;;29.09;55.13;100339.18;1738413;81;20925;-39
2021/07/29 05:46:10;;;;;;;11.00;5.70;;;;;;;28.95;54.18;100332.08;1704595;82;21206;-39
2021/07/29 05:48:38;;;;;;;13.13;5.90;;;;;;;28.75;55.70;100335.83;1729741;81;20988;-39
2021/07/29 05:51:04;;;;;;;14.33;5.37;;;;;;;28.57;56.12;100335.30;1743455;81;20990;-39
2021/07/29 05:53:31;;;;;;;19.85;6.15;;;;;;;28.60;56.29;100336.33;1742897;82;20947;-39
2021/07/29 05:55:57;;;;;;;11.43;5.72;;;;;;;28.68;57.90;100339.10;1742803;82;20956;-39
2021/07/29 05:58:23;;;;;;;17.12;5.60;;;;;;;28.82;56.58;100340.92;1742340;81;21136;-39
2021/07/29 06:00:50;;;;;;;18.45;6.47;;;;;;;28.77;57.16;100346.66;1714743;81;20999;-39
2021/07/29 06:03:16;;;;;;;17.10;5.70;;;;;;;28.77;57.58;100341.84;1719971;82;21010;-39
2021/07/29 06:05:43;;;;;;;17.40;5.60;;;;;;;28.84;57.96;100348.27;1737049;81;21059;-39
2021/07/29 06:08:09;;;;;;;17.65;6.08;;;;;;;28.86;56.95;100346.28;1695902;83;21044;-39
2021/07/29 06:10:36;;;;;;;23.10;6.00;;;;;;;28.91;58.03;100348.51;1714397;81;21154;-39
2021/07/29 06:13:02;;;;;;;19.20;6.25;;;;;;;28.86;57.70;100351.61;1742404;81;21503;-39
2021/07/29 06:15:29;;;;;;;13.90;5.83;;;;;;;28.85;58.35;100335.80;1742918;81;21556;-39
2021/07/29 06:17:58;;;;;;;13.55;6.15;;;;;;;28.94;57.83;100342.39;1742664;81;21504;-39
2021/07/29 06:20:23;;;;;;;15.43;6.10;;;;;;;29.01;56.79;100336.45;1743133;81;20904;-39
2021/07/29 06:22:50;;;;;;;23.18;6.25;;;;;;;29.19;57.33;100336.44;1741968;82;21886;-39
2021/07/29 06:25:20;;;;;;;19.37;6.10;;;;;;;29.39;56.97;100335.77;1722437;82;21003;-39
2021/07/29 06:27:48;;;;;;;18.87;6.45;;;;;;;29.62;57.79;100335.30;1742034;81;20923;-39
2021/07/29 06:30:17;;;;;;;25.02;6.53;;;;;;;29.79;57.07;100321.56;1721302;82;21506;-39
2021/07/29 06:32:44;;;;;;;31.65;6.97;;;;;;;29.96;56.26;100325.19;1741255;81;20902;-39
2021/07/29 06:35:12;;;;;;;28.23;7.47;;;;;;;30.04;55.08;100317.73;1743390;82;21167;-39
2021/07/29 06:37:39;;;;;;;29.90;7.05;;;;;;;30.08;55.45;100323.94;1740068;81;21023;-39
2021/07/29 06:40:07;;;;;;;35.15;7.47;;;;;;;30.08;54.84;100330.60;1736849;81;21030;-39
2021/07/29 06:42:34;;;;;;;27.13;7.70;;;;;;;30.14;54.21;100337.62;1741030;81;21026;-39
2021/07/29 06:45:00;;;;;;;25.95;9.08;;;;;;;30.21;55.16;100328.83;1715197;81;21033;-39
2021/07/29 06:47:27;;;;;;;13.48;6.78;;;;;;;30.23;54.65;100331.34;1702381;82;21027;-39
2021/07/29 06:49:54;;;;;;;23.73;6.60;;;;;;;30.32;53.00;100322.37;1741093;82;20981;-39
2021/07/29 06:52:20;;;;;;;24.20;5.95;;;;;;;30.37;52.27;100317.38;1728603;82;21027;-39
2021/07/29 06:54:47;;;;;;;22.07;6.20;;;;;;;30.42;52.46;100321.39;1742499;82;20970;-40
2021/07/29 06:57:13;;;;;;;18.95;6.72;;;;;;;30.46;51.57;100319.58;1739070;81;20975;-39
2021/07/29 06:59:39;;;;;;;27.62;6.53;;;;;;;30.59;52.08;100315.11;1734990;81;21774;-39
2021/07/29 07:02:06;;;;;;;20.77;6.37;;;;;;;30.70;51.45;100315.84;1707663;83;21465;-39
2021/07/29 07:04:32;;;;;;;24.77;6.33;;;;;;;30.78;51.06;100307.32;1681782;83;20918;-40
2021/07/29 07:06:59;;;;;;;12.30;5.30;;;;;;;30.72;50.66;100314.66;1729125;82;21593;-40
2021/07/29 07:09:25;;;;;;;19.35;5.58;;;;;;;30.76;52.08;100315.18;1741862;82;21058;-39
2021/07/29 07:11:53;;;;;;;16.45;6.17;;;;;;;30.81;51.11;100310.17;1726145;81;21522;-39
2021/07/29 07:14:20;;;;;;;25.92;5.97;;;;;;;30.92;50.90;100305.83;1740190;81;20920;-40
2021/07/29 07:16:46;;;;;;;16.37;6.05;;;;;;;31.01;50.50;100298.66;1736369;81;20911;-39
2021/07/29 07:19:13;;;;;;;16.07;5.40;;;;;;;31.07;49.37;100303.84;1736768;81;21020;-39
2021/07/29 07:21:39;;;;;;;19.95;6.22;;;;;;;31.13;48.56;100304.52;1737203;82;21029;-40
2021/07/29 07:24:07;;;;;;;20.40;5.97;;;;;;;31.19;48.87;100299.01;1743228;82;21767;-40
2021/07/29 07:26:33;;;;;;;16.15;5.55;;;;;;;31.17;48.80;100301.02;1736655;81;20934;-39
2021/07/29 07:29:00;;;;;;;26.15;6.03;;;;;;;31.21;47.94;100293.88;1707381;83;20994;-39
2021/07/29 07:31:26;;;;;;;24.65;5.60;;;;;;;31.41;47.41;100289.48;1740745;81;21546;-40
2021/07/29 07:33:53;;;;;;;16.00;5.92;;;;;;;31.64;46.63;100283.42;1739374;81;20995;-39
2021/07/29 07:36:20;;;;;;;13.98;5.92;;;;;;;31.90;47.40;100283.22;1738815;81;21077;-40
2021/07/29 07:38:51;;;;;;;27.62;6.17;;;;;;;32.19;48.19;100278.23;1738217;81;21026;-40
2021/07/29 07:41:17;;;;;;;31.87;5.67;;;;;;;32.33;46.36;100285.56;1736619;82;20993;-40
2021/07/29 07:43:46;;;;;;;19.10;5.47;;;;;;;32.46;46.61;100284.14;1739897;81;21501;-39
2021/07/29 07:46:12;;;;;;;21.97;6.03;;;;;;;32.57;44.71;100282.91;1739207;82;21095;-39
2021/07/29 07:48:38;;;;;;;23.00;6.00;;;;;;;32.76;44.19;100277.61;1690047;83;21212;-40
2021/07/29 07:51:05;;;;;;;22.45;7.37;;;;;;;32.92;44.54;100276.16;1741498;81;20986;-40
2021/07/29 07:53:32;;;;;;;16.10;6.50;;;;;;;33.13;44.91;100276.51;1720783;82;21010;-40
2021/07/29 07:56:04;;;;;;;17.02;5.65;;;;;;;33.42;43.71;100277.08;1737482;81;20981;-39
2021/07/29 07:58:32;;;;;;;14.05;5.35;;;;;;;33.64;43.57;100269.98;1742594;81;20981;-39
2021/07/29 08:00:58;;;;;;;16.05;5.05;;;;;;;33.92;43.79;100267.98;1734275;81;22124;-40
2021/07/29 08:03:25;;;;;;;13.32;5.65;;;;;;;34.08;43.86;100270.98;1733672;81;22136;-39
2021/07/29 08:05:52;;;;;;;16.15;6.30;;;;;;;34.07;42.29;100270.66;1737625;81;20990;-39
2021/07/29 08:09:17;;;;;;;19.80;5.75;;;;;;;34.22;43.49;100266.60;1814672;79;22270;-39
2021/07/29 08:11:45;;;;;;;27.25;6.17;;;;;;;34.20;43.49;100264.63;1785987;80;20932;-39
2021/07/29 08:14:12;;;;;;;15.45;5.85;;;;;;;34.44;44.53;100269.33;1776746;80;21044;-39
2021/07/29 08:16:39;;;;;;;22.05;6.00;;;;;;;34.52;42.85;100265.19;1769887;80;21014;-39
2021/07/29 08:19:05;;;;;;;17.10;5.37;;;;;;;34.71;42.18;100266.08;1736105;80;20948;-40
2021/07/29 08:21:32;;;;;;;14.13;6.10;;;;;;;34.88;43.09;100265.33;1756638;80;21612;-40
2021/07/29 08:23:58;;;;;;;12.10;5.08;;;;;;;34.98;43.05;100263.13;1772117;80;21497;-40
2021/07/29 08:26:25;;;;;;;20.80;6.00;;;;;;;35.06;42.10;100260.32;1748287;80;22357;-40
2021/07/29 08:28:52;;;;;;;17.57;5.53;;;;;;;35.16;42.22;100257.30;1765714;80;20966;-39
2021/07/29 08:31:19;;;;;;;18.77;5.92;;;;;;;35.09;42.42;100253.73;1764900;80;20971;-39
2021/07/29 08:33:46;;;;;;;35.13;6.30;;;;;;;35.04;41.62;100255.66;1778726;80;20974;-39
2021/07/29 08:36:14;;;;;;;23.75;5.75;;;;;;;35.12;41.95;100250.65;1734050;80;20991;-40
2021/07/29 08:38:42;;;;;;;17.90;6.37;;;;;;;35.42;42.02;100250.43;1757692;80;21117;-40
2021/07/29 08:41:08;;;;;;;20.85;6.00;;;;;;;35.77;41.09;100255.84;1753933;81;21185;-41
2021/07/29 08:43:35;;;;;;;26.15;6.58;;;;;;;35.99;40.77;100248.16;1747773;81;20979;-40
2021/07/29 08:46:10;;;;;;;24.67;6.58;;;;;;;36.18;40.96;100248.77;1755574;81;22214;-40
2021/07/29 08:48:50;;;;;;;17.25;6.25;;;;;;;36.28;40.79;100247.54;1722563;82;21494;-40
2021/07/29 08:51:24;;;;;;;13.03;6.33;;;;;;;36.33;40.59;100247.75;1715106;81;21164;-40
2021/07/29 08:53:52;;;;;;;17.67;5.65;;;;;;;36.45;41.48;100252.02;1689977;84;21315;-39
2021/07/29 08:56:24;;;;;;;25.05;7.00;;;;;;;36.59;38.74;100247.01;1702785;84;20965;-40
2021/07/29 08:58:52;;;;;;;19.15;5.95;;;;;;;36.71;38.55;100250.42;1699238;83;21690;-40
2021/07/29 09:01:19;;;;;;;20.05;6.12;;;;;;;37.03;38.60;100247.98;1705248;84;20963;-39
2021/07/29 09:03:45;;;;;;;22.65;5.67;;;;;;;37.18;37.83;100239.12;1700354;84;21171;-39
2021/07/29 09:06:14;;;;;;;14.07;5.25;;;;;;;37.21;38.17;100240.05;1702834;83;21493;-40
2021/07/29 09:08:53;;;;;;;18.40;5.47;;;;;;;37.12;35.40;100232.39;1691145;84;21014;-39
2021/07/29 09:11:37;;;;;;;21.73;5.92;;;;;;;36.57;35.23;100232.91;1689014;84;20976;-39
2021/07/29 09:14:18;;;;;;;18.82;6.30;;;;;;;36.57;37.64;100230.22;1674896;85;20930;-40
2021/07/29 09:16:59;;;;;;;20.75;5.47;;;;;;;36.36;38.34;100230.67;1661611;84;21736;-41
2021/07/29 09:19:45;;;;;;;16.35;5.92;;;;;;;36.27;38.40;100225.17;1712945;82;21581;-40
2021/07/29 09:22:21;;;;;;;16.95;5.78;;;;;;;36.24;38.78;100226.41;1712561;82;21011;-40
2021/07/29 09:25:07;;;;;;;26.25;5.85;;;;;;;36.20;38.82;100222.97;1675444;83;21483;-41
2021/07/29 09:27:43;;;;;;;19.55;5.37;;;;;;;36.05;37.62;100225.33;1708297;82;20991;-40
2021/07/29 09:30:29;;;;;;;18.60;6.15;;;;;;;36.12;38.51;100211.86;1741985;82;21097;-39
2021/07/29 09:33:13;;;;;;;24.23;5.42;;;;;;;36.17;37.46;100209.91;1700482;83;21630;-40
2021/07/29 09:35:45;;;;;;;23.27;5.95;;;;;;;35.99;37.29;100201.86;1693448;84;20968;-40
2021/07/29 09:38:31;;;;;;;28.42;6.03;;;;;;;36.05;36.55;100201.09;1697142;83;20971;-39
2021/07/29 09:41:01;;;;;;;27.15;5.40;;;;;;;36.04;37.89;100200.78;1726191;82;21029;-39
2021/07/29 09:43:31;;;;;;;20.43;4.92;;;;;;;36.06;36.87;100191.14;1716646;82;21185;-39
2021/07/29 09:46:01;;;;;;;23.35;5.58;;;;;;;36.13;36.15;100199.24;1725759;83;21585;-40
2021/07/29 09:48:27;;;;;;;20.32;5.72;;;;;;;36.14;36.28;100196.36;1726516;81;21538;-40
2021/07/29 09:50:59;;;;;;;32.28;5.85;;;;;;;36.37;36.46;100197.31;1726172;82;21588;-40
2021/07/29 09:53:34;;;;;;;33.55;6.30;;;;;;;36.37;34.47;100198.66;1731294;82;21035;-40
2021/07/29 09:56:07;;;;;;;28.55;5.40;;;;;;;36.07;35.05;100190.95;1719958;82;21150;-40
2021/07/29 09:58:37;;;;;;;24.10;5.05;;;;;;;35.85;34.14;100195.59;1724761;82;20948;-39
2021/07/29 10:01:04;;;;;;;35.28;6.62;;;;;;;35.42;35.63;100196.63;1727707;82;21000;-40
2021/07/29 10:03:30;;;;;;;31.93;5.40;;;;;;;35.13;34.52;100197.73;1725180;82;20968;-40
2021/07/29 10:06:06;;;;;;;29.90;6.00;;;;;;;34.86;35.75;100201.01;1740746;82;21080;-40
2021/07/29 10:08:40;;;;;;;;;;;;;;;34.55;36.99;100199.52;1709743;82;21789;-40
2021/07/29 10:11:13;;;;;;;20.55;4.97;;;;;;;34.36;40.00;100188.89;1740449;82;22037;-40
2021/07/29 10:13:41;;;;;;;24.40;6.25;;;;;;;34.15;39.78;100187.00;1702327;84;20945;-40
2021/07/29 10:16:11;;;;;;;23.67;5.75;;;;;;;34.18;40.77;100186.13;1742619;82;20932;-39
2021/07/29 10:18:56;;;;;;;23.07;5.50;;;;;;;34.32;40.20;100187.09;1720682;82;21002;-40
2021/07/29 10:21:30;;;;;;;18.07;5.03;;;;;;;34.43;40.04;100179.03;1739968;82;21173;-40
2021/07/29 10:23:58;;;;;;;14.03;5.73;;;;;;;34.65;39.54;100173.14;1741131;82;20919;-40
2021/07/29 10:26:26;;;;;;;33.18;5.72;;;;;;;35.08;38.83;100171.42;1742415;82;20980;-40
2021/07/29 10:28:52;;;;;;;18.50;5.87;;;;;;;35.63;38.07;100162.12;1741075;82;21485;-40
2021/07/29 10:31:19;;;;;;;16.55;5.25;;;;;;;36.12;39.48;100159.89;1743733;82;21194;-39
2021/07/29 10:33:48;;;;;;;16.75;4.87;;;;;;;36.46;36.73;100155.34;1742697;81;21015;-39
2021/07/29 10:36:40;;;;;;;11.57;4.28;;;;;;;36.80;35.31;100152.16;1730544;82;20938;-39
2021/07/29 10:39:06;;;;;;;128.50;7.62;;;;;;;36.57;35.57;100149.38;1740018;81;20981;-40
2021/07/29 10:41:40;;;;;;;16.80;4.78;;;;;;;36.39;36.14;100149.45;1709172;81;21019;-40
2021/07/29 10:44:10;;;;;;;35.13;5.90;;;;;;;36.54;35.66;100141.72;1741469;81;21000;-40
2021/07/29 10:47:03;;;;;;;18.82;5.35;;;;;;;36.49;33.74;100142.81;1740070;80;21162;-40
2021/07/29 10:49:55;;;;;;;27.77;5.12;;;;;;;36.25;36.84;100139.69;1737474;81;20971;-40
2021/07/29 10:52:22;;;;;;;18.23;4.55;;;;;;;36.03;32.92;100133.16;1739036;81;20980;-40
2021/07/29 10:54:48;;;;;;;36.60;5.67;;;;;;;36.20;34.23;100120.13;1740515;81;20979;-40
2021/07/29 10:57:16;;;;;;;29.50;4.97;;;;;;;36.39;34.15;100122.52;1742604;81;21007;-40
2021/07/29 10:59:42;;;;;;;15.40;4.90;;;;;;;36.47;32.26;100117.44;1739868;81;21902;-39
2021/07/29 11:02:16;;;;;;;38.63;5.58;;;;;;;36.50;32.12;100115.67;1738897;81;20957;-40
2021/07/29 11:04:58;;;;;;;29.07;5.90;;;;;;;36.39;32.22;100110.92;1739704;81;20900;-39
2021/07/29 11:07:25;;;;;;;14.60;4.67;;;;;;;36.45;34.79;100107.39;1742711;81;20953;-39
2021/07/29 11:10:16;;;;;;;21.02;4.67;;;;;;;36.46;35.19;100095.58;1727951;81;21566;-39
2021/07/29 11:12:46;;;;;;;24.72;5.08;;;;;;;35.96;35.17;100096.77;1738770;81;21145;-39
2021/07/29 11:15:12;;;;;;;28.02;4.95;;;;;;;35.43;34.47;100092.05;1735951;81;21016;-39
2021/07/29 11:17:39;;;;;;;19.73;4.87;;;;;;;35.02;33.85;100084.86;1739070;81;20948;-40
2021/07/29 11:20:08;;;;;;;39.45;5.95;;;;;;;34.70;33.43;100094.66;1738489;80;20945;-39
2021/07/29 11:22:47;;;;;;;41.25;5.35;;;;;;;34.27;34.90;100094.20;1739251;81;21495;-39
2021/07/29 11:25:16;;;;;;;32.13;5.95;;;;;;;33.93;36.34;100099.72;1731885;81;22740;-39